KIND/IND METAR and TAF weather

Enter ICAO airport designator
Station Type Date Time Source
KIND METAR 2018/12/15 22:29 UTC NOAA

KIND 152229Z 01012KT 10SM -RA SCT018 SCT047 OVC070 06/03 A2998 RMK AO2 P0000 T00610028 $


Station Type Date Time Source
KIND Decoded METAR 2018/12/15 22:29 UTC NOAA

INDIANAPOLIS INTERNATIONAL AIRPORT , IN, United States (KIND) 39-43N 86-17W 242M
Dec 15, 2018 - 05:29 PM EST / 2018.12.15 2229 UTC
Wind: from the N (010 degrees) at 14 MPH (12 KT):0
Visibility: 10 mile(s):0
Sky conditions: overcast
Weather: light rain
Precipitation last hour: A trace
Temperature: 43.0 F (6.1 C)
Dew Point: 37.0 F (2.8 C)
Relative Humidity: 79%
Pressure (altimeter): 29.98 in. Hg (1015 hPa)
ob: KIND 152229Z 01012KT 10SM -RA SCT018 SCT047 OVC070 06/03 A2998 RMK AO2 P0000 T00610028
cycle: 22

Station Type Date Time Source
KIND TAF 2018/12/15 21:48 UTC NOAA

TAF
AMD KIND 152044Z 1521/1624 04012G18KT P6SM -RA OVC024
FM160000 02009KT P6SM VCSH OVC035
FM160200 02008KT P6SM VCSH OVC026
FM160500 01007KT P6SM OVC030
FM160700 36006KT P6SM BKN035
FM161500 VRB03KT P6SM SCT190


Example: see airport list